Terminal Aerodrome Forecast
Issued by NWS Blacksburg, VA

Home | Current Version | Previous Version | Text Only | Print | Product List | Glossary On
Versions: 1 2 3 4 5 6 7 8 9 10 11 12 13 14 15 16 17 18 19 20 21 22 23 24 25 26 27 28 29 30
000
FTUS41 KRNK 232344
TAFLYH
TAF
KLYH 232344Z 2400/2424 06005KT P6SM -RA OVC007 WS017/15035KT
      TEMPO 2402/2406 1SM +RA BR OVC015
     FM240700 22008KT 4SM -RA BR OVC007
     FM240900 21014G22KT P6SM OVC019
     FM241400 21013G27KT P6SM OVC030
     FM241900 21015G28KT P6SM SCT035=

USA.gov is the U.S. government's official web portal to all federal, state and local government web resources and services.